sensor_id;sensor_type;location;lat;lon;timestamp;pressure;altitude;pressure_sealevel;temperature;humidity
19748;BME280;10032;51.386;12.516;2023-03-16T00:02:15;100809.75;;;0.38;100.00
19748;BME280;10032;51.386;12.516;2023-03-16T00:04:41;100809.09;;;0.36;100.00
19748;BME280;10032;51.386;12.516;2023-03-16T00:07:08;100810.41;;;0.32;100.00
19748;BME280;10032;51.386;12.516;2023-03-16T00:09:34;100797.94;;;0.33;100.00
19748;BME280;10032;51.386;12.516;2023-03-16T00:12:01;100808.25;;;0.36;100.00
19748;BME280;10032;51.386;12.516;2023-03-16T00:14:30;100802.91;;;0.36;100.00
19748;BME280;10032;51.386;12.516;2023-03-16T00:16:56;100810.41;;;0.32;100.00
19748;BME280;10032;51.386;12.516;2023-03-16T00:19:22;100804.44;;;0.30;100.00
19748;BME280;10032;51.386;12.516;2023-03-16T00:21:48;100805.09;;;0.24;100.00
19748;BME280;10032;51.386;12.516;2023-03-16T00:24:14;100807.94;;;0.23;100.00
19748;BME280;10032;51.386;12.516;2023-03-16T00:26:43;100805.44;;;0.21;100.00
19748;BME280;10032;51.386;12.516;2023-03-16T00:29:09;100801.75;;;0.22;100.00
19748;BME280;10032;51.386;12.516;2023-03-16T00:31:39;100812.75;;;0.19;100.00
19748;BME280;10032;51.386;12.516;2023-03-16T00:34:09;100808.25;;;0.20;100.00
19748;BME280;10032;51.386;12.516;2023-03-16T00:36:34;100805.44;;;0.21;100.00
19748;BME280;10032;51.386;12.516;2023-03-16T00:39:05;100804.78;;;0.19;100.00
19748;BME280;10032;51.386;12.516;2023-03-16T00:41:31;100805.78;;;0.18;100.00
19748;BME280;10032;51.386;12.516;2023-03-16T00:44:05;100807.75;;;0.16;100.00
19748;BME280;10032;51.386;12.516;2023-03-16T00:46:30;100810.41;;;0.16;100.00
19748;BME280;10032;51.386;12.516;2023-03-16T00:48:56;100817.44;;;0.09;100.00
19748;BME280;10032;51.386;12.516;2023-03-16T00:51:21;100811.41;;;0.07;100.00
19748;BME280;10032;51.386;12.516;2023-03-16T00:53:47;100819.41;;;0.07;100.00
19748;BME280;10032;51.386;12.516;2023-03-16T00:56:13;100821.09;;;0.08;100.00
19748;BME280;10032;51.386;12.516;2023-03-16T00:58:39;100814.91;;;0.08;100.00
19748;BME280;10032;51.386;12.516;2023-03-16T01:01:12;100830.25;;;0.06;100.00
19748;BME280;10032;51.386;12.516;2023-03-16T01:03:39;100822.72;;;0.01;100.00
19748;BME280;10032;51.386;12.516;2023-03-16T01:06:06;100820.06;;;0.01;100.00
19748;BME280;10032;51.386;12.516;2023-03-16T01:08:34;100821.06;;;0.00;100.00
19748;BME280;10032;51.386;12.516;2023-03-16T01:11:13;100823.25;;;-0.03;100.00
19748;BME280;10032;51.386;12.516;2023-03-16T01:13:40;100821.09;;;-0.08;100.00
19748;BME280;10032;51.386;12.516;2023-03-16T01:16:06;100826.22;;;-0.06;100.00
19748;BME280;10032;51.386;12.516;2023-03-16T01:18:32;100813.91;;;-0.07;100.00
19748;BME280;10032;51.386;12.516;2023-03-16T01:20:59;100816.72;;;-0.09;100.00
19748;BME280;10032;51.386;12.516;2023-03-16T01:23:26;100819.91;;;-0.13;100.00
19748;BME280;10032;51.386;12.516;2023-03-16T01:25:52;100818.41;;;-0.16;100.00
19748;BME280;10032;51.386;12.516;2023-03-16T01:28:24;100809.75;;;-0.17;100.00
19748;BME280;10032;51.386;12.516;2023-03-16T01:30:51;100810.41;;;-0.16;100.00
19748;BME280;10032;51.386;12.516;2023-03-16T01:33:22;100805.09;;;-0.16;100.00
19748;BME280;10032;51.386;12.516;2023-03-16T01:36:00;100816.25;;;-0.20;100.00
19748;BME280;10032;51.386;12.516;2023-03-16T01:38:26;100815.75;;;-0.23;100.00
19748;BME280;10032;51.386;12.516;2023-03-16T01:40:53;100818.72;;;-0.27;100.00
19748;BME280;10032;51.386;12.516;2023-03-16T01:43:20;100812.75;;;-0.28;100.00
19748;BME280;10032;51.386;12.516;2023-03-16T01:48:28;100814.41;;;-0.28;100.00
19748;BME280;10032;51.386;12.516;2023-03-16T01:51:04;100819.88;;;-0.29;100.00
19748;BME280;10032;51.386;12.516;2023-03-16T01:53:32;100807.72;;;-0.32;100.00
19748;BME280;10032;51.386;12.516;2023-03-16T01:56:00;100808.03;;;-0.35;100.00
19748;BME280;10032;51.386;12.516;2023-03-16T01:58:29;100815.06;;;-0.33;100.00
19748;BME280;10032;51.386;12.516;2023-03-16T02:00:55;100809.19;;;-0.37;100.00
19748;BME280;10032;51.386;12.516;2023-03-16T02:03:23;100807.03;;;-0.42;100.00
19748;BME280;10032;51.386;12.516;2023-03-16T02:05:58;100802.72;;;-0.43;100.00
19748;BME280;10032;51.386;12.516;2023-03-16T02:08:26;100795.91;;;-0.45;100.00
19748;BME280;10032;51.386;12.516;2023-03-16T02:10:54;100792.56;;;-0.47;100.00
19748;BME280;10032;51.386;12.516;2023-03-16T02:13:24;100795.41;;;-0.48;100.00
19748;BME280;10032;51.386;12.516;2023-03-16T02:15:53;100795.69;;;-0.52;100.00
19748;BME280;10032;51.386;12.516;2023-03-16T02:18:19;100803.53;;;-0.50;100.00
19748;BME280;10032;51.386;12.516;2023-03-16T02:20:56;100801.03;;;-0.52;100.00
19748;BME280;10032;51.386;12.516;2023-03-16T02:23:26;100796.72;;;-0.52;100.00
19748;BME280;10032;51.386;12.516;2023-03-16T02:28:40;100807.66;;;-0.56;100.00
19748;BME280;10032;51.386;12.516;2023-03-16T02:31:14;100801.19;;;-0.53;100.00
19748;BME280;10032;51.386;12.516;2023-03-16T02:33:41;100796.88;;;-0.54;100.00
19748;BME280;10032;51.386;12.516;2023-03-16T02:36:08;100801.69;;;-0.57;100.00
19748;BME280;10032;51.386;12.516;2023-03-16T02:38:33;100797.38;;;-0.58;100.00
19748;BME280;10032;51.386;12.516;2023-03-16T02:41:25;100794.84;;;-0.60;100.00
19748;BME280;10032;51.386;12.516;2023-03-16T02:46:31;100801.69;;;-0.65;100.00
19748;BME280;10032;51.386;12.516;2023-03-16T02:49:19;100801.84;;;-0.67;100.00
19748;BME280;10032;51.386;12.516;2023-03-16T02:51:45;100802.66;;;-0.67;100.00
19748;BME280;10032;51.386;12.516;2023-03-16T02:54:11;100808.81;;;-0.66;100.00
19748;BME280;10032;51.386;12.516;2023-03-16T02:56:37;100807.97;;;-0.67;100.00
19748;BME280;10032;51.386;12.516;2023-03-16T02:59:03;100807.31;;;-0.68;100.00
19748;BME280;10032;51.386;12.516;2023-03-16T03:01:29;100812.78;;;-0.70;100.00
19748;BME280;10032;51.386;12.516;2023-03-16T03:03:56;100815.59;;;-0.72;100.00
19748;BME280;10032;51.386;12.516;2023-03-16T03:06:21;100805.97;;;-0.73;100.00
19748;BME280;10032;51.386;12.516;2023-03-16T03:08:48;100804.28;;;-0.73;100.00
19748;BME280;10032;51.386;12.516;2023-03-16T03:11:14;100808.63;;;-0.73;100.00
19748;BME280;10032;51.386;12.516;2023-03-16T03:13:39;100818.75;;;-0.76;100.00
19748;BME280;10032;51.386;12.516;2023-03-16T03:16:08;100808.59;;;-0.80;100.00
19748;BME280;10032;51.386;12.516;2023-03-16T03:18:34;100817.88;;;-0.84;100.00
19748;BME280;10032;51.386;12.516;2023-03-16T03:20:59;100818.72;;;-0.84;100.00
19748;BME280;10032;51.386;12.516;2023-03-16T03:23:25;100823.34;;;-0.86;100.00
19748;BME280;10032;51.386;12.516;2023-03-16T03:25:50;100827.88;;;-0.86;100.00
19748;BME280;10032;51.386;12.516;2023-03-16T03:28:15;100829.69;;;-0.87;100.00
19748;BME280;10032;51.386;12.516;2023-03-16T03:30:41;100832.34;;;-0.87;100.00
19748;BME280;10032;51.386;12.516;2023-03-16T03:33:07;100834.00;;;-0.86;100.00
19748;BME280;10032;51.386;12.516;2023-03-16T03:35:32;100831.50;;;-0.88;100.00
19748;BME280;10032;51.386;12.516;2023-03-16T03:37:57;100839.81;;;-0.82;100.00
19748;BME280;10032;51.386;12.516;2023-03-16T03:40:23;100836.19;;;-0.81;100.00
19748;BME280;10032;51.386;12.516;2023-03-16T03:42:48;100834.50;;;-0.82;100.00
19748;BME280;10032;51.386;12.516;2023-03-16T03:45:15;100837.34;;;-0.84;100.00
19748;BME280;10032;51.386;12.516;2023-03-16T03:47:42;100838.50;;;-0.86;100.00
19748;BME280;10032;51.386;12.516;2023-03-16T03:50:09;100832.63;;;-0.90;100.00
19748;BME280;10032;51.386;12.516;2023-03-16T03:52:34;100836.81;;;-0.88;100.00
19748;BME280;10032;51.386;12.516;2023-03-16T03:55:00;100833.19;;;-0.86;100.00
19748;BME280;10032;51.386;12.516;2023-03-16T03:57:25;100829.81;;;-0.88;100.00
19748;BME280;10032;51.386;12.516;2023-03-16T03:59:51;100823.50;;;-0.88;100.00
19748;BME280;10032;51.386;12.516;2023-03-16T04:02:16;100820.50;;;-0.93;100.00
19748;BME280;10032;51.386;12.516;2023-03-16T04:04:42;100822.50;;;-0.94;100.00
19748;BME280;10032;51.386;12.516;2023-03-16T04:07:08;100827.47;;;-0.99;100.00
19748;BME280;10032;51.386;12.516;2023-03-16T04:09:34;100826.94;;;-1.03;100.00
19748;BME280;10032;51.386;12.516;2023-03-16T04:12:01;100821.13;;;-1.06;100.00
19748;BME280;10032;51.386;12.516;2023-03-16T04:14:27;100820.75;;;-1.11;100.00
19748;BME280;10032;51.386;12.516;2023-03-16T04:16:53;100819.09;;;-1.12;100.00
19748;BME280;10032;51.386;12.516;2023-03-16T04:19:20;100819.41;;;-1.15;100.00
19748;BME280;10032;51.386;12.516;2023-03-16T04:21:46;100829.03;;;-1.14;100.00
19748;BME280;10032;51.386;12.516;2023-03-16T04:24:12;100812.28;;;-1.15;100.00
19748;BME280;10032;51.386;12.516;2023-03-16T04:26:39;100817.06;;;-1.18;100.00
19748;BME280;10032;51.386;12.516;2023-03-16T04:29:05;100817.38;;;-1.21;100.00
19748;BME280;10032;51.386;12.516;2023-03-16T04:31:30;100824.34;;;-1.20;100.00
19748;BME280;10032;51.386;12.516;2023-03-16T04:33:56;100824.34;;;-1.20;100.00
19748;BME280;10032;51.386;12.516;2023-03-16T04:36:21;100818.53;;;-1.24;100.00
19748;BME280;10032;51.386;12.516;2023-03-16T04:38:50;100819.97;;;-1.29;100.00
19748;BME280;10032;51.386;12.516;2023-03-16T04:41:16;100819.97;;;-1.29;100.00
19748;BME280;10032;51.386;12.516;2023-03-16T04:43:42;100821.97;;;-1.31;100.00
19748;BME280;10032;51.386;12.516;2023-03-16T04:46:08;100821.59;;;-1.36;100.00
19748;BME280;10032;51.386;12.516;2023-03-16T04:48:34;100823.28;;;-1.35;100.00
19748;BME280;10032;51.386;12.516;2023-03-16T04:51:00;100820.63;;;-1.35;100.00
19748;BME280;10032;51.386;12.516;2023-03-16T04:53:28;100820.94;;;-1.38;100.00
19748;BME280;10032;51.386;12.516;2023-03-16T04:55:54;100819.59;;;-1.42;100.00
19748;BME280;10032;51.386;12.516;2023-03-16T04:58:19;100821.25;;;-1.41;100.00
19748;BME280;10032;51.386;12.516;2023-03-16T05:00:45;100827.41;;;-1.41;100.00
19748;BME280;10032;51.386;12.516;2023-03-16T05:03:10;100830.22;;;-1.42;100.00
19748;BME280;10032;51.386;12.516;2023-03-16T05:05:37;100827.34;;;-1.49;100.00
19748;BME280;10032;51.386;12.516;2023-03-16T05:08:04;100832.78;;;-1.50;100.00
19748;BME280;10032;51.386;12.516;2023-03-16T05:10:31;100832.78;;;-1.50;100.00
19748;BME280;10032;51.386;12.516;2023-03-16T05:12:57;100835.63;;;-1.52;100.00
19748;BME280;10032;51.386;12.516;2023-03-16T05:15:23;100830.47;;;-1.53;100.00
19748;BME280;10032;51.386;12.516;2023-03-16T05:17:48;100833.97;;;-1.53;100.00
19748;BME280;10032;51.386;12.516;2023-03-16T05:20:14;100830.63;;;-1.55;100.00
19748;BME280;10032;51.386;12.516;2023-03-16T05:22:41;100832.59;;;-1.57;100.00
19748;BME280;10032;51.386;12.516;2023-03-16T05:25:08;100835.78;;;-1.53;100.00
19748;BME280;10032;51.386;12.516;2023-03-16T05:27:40;100843.75;;;-1.53;100.00
19748;BME280;10032;51.386;12.516;2023-03-16T05:30:07;100840.94;;;-1.52;100.00
19748;BME280;10032;51.386;12.516;2023-03-16T05:32:32;100840.09;;;-1.52;100.00
19748;BME280;10032;51.386;12.516;2023-03-16T05:34:58;100844.75;;;-1.54;100.00
19748;BME280;10032;51.386;12.516;2023-03-16T05:37:23;100840.44;;;-1.55;100.00
19748;BME280;10032;51.386;12.516;2023-03-16T05:39:49;100840.94;;;-1.52;100.00
19748;BME280;10032;51.386;12.516;2023-03-16T05:42:14;100836.63;;;-1.53;100.00
19748;BME280;10032;51.386;12.516;2023-03-16T05:44:40;100833.50;;;-1.48;100.00
19748;BME280;10032;51.386;12.516;2023-03-16T05:47:05;100842.66;;;-1.43;100.00
19748;BME280;10032;51.386;12.516;2023-03-16T05:49:31;100842.19;;;-1.38;100.00
19748;BME280;10032;51.386;12.516;2023-03-16T05:51:56;100852.69;;;-1.37;100.00
19748;BME280;10032;51.386;12.516;2023-03-16T05:54:21;100850.53;;;-1.33;100.00
19748;BME280;10032;51.386;12.516;2023-03-16T05:56:47;100847.69;;;-1.32;100.00
19748;BME280;10032;51.386;12.516;2023-03-16T05:59:12;100849.91;;;-1.27;100.00
19748;BME280;10032;51.386;12.516;2023-03-16T06:01:38;100854.59;;;-1.21;100.00
19748;BME280;10032;51.386;12.516;2023-03-16T06:04:04;100855.94;;;-1.17;100.00
19748;BME280;10032;51.386;12.516;2023-03-16T06:06:29;100850.00;;;-1.11;100.00
19748;BME280;10032;51.386;12.516;2023-03-16T06:08:55;100854.00;;;-1.07;100.00
19748;BME280;10032;51.386;12.516;2023-03-16T06:11:20;100856.03;;;-1.01;100.00
19748;BME280;10032;51.386;12.516;2023-03-16T06:13:46;100850.22;;;-0.97;100.00
19748;BME280;10032;51.386;12.516;2023-03-16T06:16:11;100851.44;;;-0.91;100.00
19748;BME280;10032;51.386;12.516;2023-03-16T06:18:39;100849.94;;;-0.86;100.00
19748;BME280;10032;51.386;12.516;2023-03-16T06:21:05;100846.50;;;-0.78;100.00
19748;BME280;10032;51.386;12.516;2023-03-16T06:23:31;100859.00;;;-0.71;100.00
19748;BME280;10032;51.386;12.516;2023-03-16T06:25:57;100858.19;;;-0.63;100.00
19748;BME280;10032;51.386;12.516;2023-03-16T06:28:24;100865.22;;;-0.54;100.00
19748;BME280;10032;51.386;12.516;2023-03-16T06:30:55;100865.22;;;-0.47;100.00
19748;BME280;10032;51.386;12.516;2023-03-16T06:33:21;100865.28;;;-0.38;100.00
19748;BME280;10032;51.386;12.516;2023-03-16T06:35:46;100865.97;;;-0.28;100.00
19748;BME280;10032;51.386;12.516;2023-03-16T06:38:16;100861.84;;;-0.15;100.00
19748;BME280;10032;51.386;12.516;2023-03-16T06:40:41;100861.69;;;-0.06;100.00
19748;BME280;10032;51.386;12.516;2023-03-16T06:43:07;100864.19;;;0.04;100.00
19748;BME280;10032;51.386;12.516;2023-03-16T06:45:33;100861.69;;;0.10;100.00
19748;BME280;10032;51.386;12.516;2023-03-16T06:47:58;100860.03;;;0.17;100.00
19748;BME280;10032;51.386;12.516;2023-03-16T06:50:25;100861.03;;;0.24;100.00
19748;BME280;10032;51.386;12.516;2023-03-16T06:52:50;100863.69;;;0.32;100.00
19748;BME280;10032;51.386;12.516;2023-03-16T06:55:16;100863.72;;;0.40;100.00
19748;BME280;10032;51.386;12.516;2023-03-16T06:57:41;100864.88;;;0.54;100.00
19748;BME280;10032;51.386;12.516;2023-03-16T07:00:09;100868.84;;;0.66;100.00
19748;BME280;10032;51.386;12.516;2023-03-16T07:02:35;100860.66;;;0.83;100.00
19748;BME280;10032;51.386;12.516;2023-03-16T07:05:04;100863.44;;;0.98;100.00
19748;BME280;10032;51.386;12.516;2023-03-16T07:07:29;100860.56;;;1.15;100.00
19748;BME280;10032;51.386;12.516;2023-03-16T07:09:55;100858.00;;;1.30;100.00
19748;BME280;10032;51.386;12.516;2023-03-16T07:12:20;100855.28;;;1.46;100.00
19748;BME280;10032;51.386;12.516;2023-03-16T07:14:46;100853.06;;;1.57;100.00
19748;BME280;10032;51.386;12.516;2023-03-16T07:17:11;100858.66;;;1.70;100.00
19748;BME280;10032;51.386;12.516;2023-03-16T07:19:37;100861.59;;;1.83;100.00
19748;BME280;10032;51.386;12.516;2023-03-16T07:22:02;100858.22;;;1.89;100.00
19748;BME280;10032;51.386;12.516;2023-03-16T07:24:28;100863.16;;;2.00;100.00
19748;BME280;10032;51.386;12.516;2023-03-16T07:26:53;100857.38;;;2.11;100.00
19748;BME280;10032;51.386;12.516;2023-03-16T07:29:19;100848.31;;;2.20;100.00
19748;BME280;10032;51.386;12.516;2023-03-16T07:31:44;100848.06;;;2.30;100.00
19748;BME280;10032;51.386;12.516;2023-03-16T07:34:10;100859.69;;;2.37;100.00
19748;BME280;10032;51.386;12.516;2023-03-16T07:36:36;100853.91;;;2.48;100.00
19748;BME280;10032;51.386;12.516;2023-03-16T07:39:02;100855.63;;;2.63;100.00
19748;BME280;10032;51.386;12.516;2023-03-16T07:41:28;100860.66;;;2.81;100.00
19748;BME280;10032;51.386;12.516;2023-03-16T07:43:53;100860.38;;;2.90;100.00
19748;BME280;10032;51.386;12.516;2023-03-16T07:46:19;100863.16;;;2.97;100.00
19748;BME280;10032;51.386;12.516;2023-03-16T07:48:44;100860.47;;;3.11;100.00
19748;BME280;10032;51.386;12.516;2023-03-16T07:51:11;100863.25;;;3.32;100.00
19748;BME280;10032;51.386;12.516;2023-03-16T07:53:38;100864.34;;;3.52;100.00
19748;BME280;10032;51.386;12.516;2023-03-16T07:56:04;100864.03;;;3.62;100.00
19748;BME280;10032;51.386;12.516;2023-03-16T07:58:29;100860.78;;;3.66;100.00
19748;BME280;10032;51.386;12.516;2023-03-16T08:00:59;100861.44;;;3.68;100.00
19748;BME280;10032;51.386;12.516;2023-03-16T08:03:26;100870.94;;;3.85;100.00
19748;BME280;10032;51.386;12.516;2023-03-16T08:05:52;100869.84;;;4.01;100.00
19748;BME280;10032;51.386;12.516;2023-03-16T08:08:17;100872.50;;;4.15;100.00
19748;BME280;10032;51.386;12.516;2023-03-16T08:10:46;100878.00;;;4.28;100.00
19748;BME280;10032;51.386;12.516;2023-03-16T08:13:11;100880.03;;;4.26;100.00
19748;BME280;10032;51.386;12.516;2023-03-16T08:15:38;100873.56;;;4.42;100.00
19748;BME280;10032;51.386;12.516;2023-03-16T08:18:04;100875.81;;;4.59;100.00
19748;BME280;10032;51.386;12.516;2023-03-16T08:20:31;100876.31;;;4.69;100.00
19748;BME280;10032;51.386;12.516;2023-03-16T08:22:57;100879.88;;;4.76;100.00
19748;BME280;10032;51.386;12.516;2023-03-16T08:25:23;100883.25;;;4.85;100.00
19748;BME280;10032;51.386;12.516;2023-03-16T08:27:48;100880.84;;;4.96;100.00
19748;BME280;10032;51.386;12.516;2023-03-16T08:30:15;100880.31;;;5.07;100.00
19748;BME280;10032;51.386;12.516;2023-03-16T08:32:41;100880.19;;;5.15;100.00
19748;BME280;10032;51.386;12.516;2023-03-16T08:35:09;100883.78;;;5.35;100.00
19748;BME280;10032;51.386;12.516;2023-03-16T08:37:36;100889.25;;;5.48;100.00
19748;BME280;10032;51.386;12.516;2023-03-16T08:40:03;100883.94;;;5.61;100.00
19748;BME280;10032;51.386;12.516;2023-03-16T08:42:35;100887.72;;;5.73;100.00
19748;BME280;10032;51.386;12.516;2023-03-16T08:45:04;100896.28;;;5.90;100.00
19748;BME280;10032;51.386;12.516;2023-03-16T08:47:35;100892.63;;;6.04;100.00
19748;BME280;10032;51.386;12.516;2023-03-16T08:50:02;100891.66;;;6.18;100.00
19748;BME280;10032;51.386;12.516;2023-03-16T08:52:30;100889.19;;;6.36;100.00
19748;BME280;10032;51.386;12.516;2023-03-16T08:54:55;100884.66;;;6.49;100.00
19748;BME280;10032;51.386;12.516;2023-03-16T08:57:21;100886.75;;;6.60;100.00
19748;BME280;10032;51.386;12.516;2023-03-16T08:59:46;100881.56;;;6.65;100.00
19748;BME280;10032;51.386;12.516;2023-03-16T09:02:13;100890.88;;;6.82;100.00
19748;BME280;10032;51.386;12.516;2023-03-16T09:04:39;100887.81;;;6.92;100.00
19748;BME280;10032;51.386;12.516;2023-03-16T09:07:04;100899.19;;;6.94;100.00
19748;BME280;10032;51.386;12.516;2023-03-16T09:09:30;100897.09;;;7.02;100.00
19748;BME280;10032;51.386;12.516;2023-03-16T09:11:57;100890.47;;;7.18;100.00
19748;BME280;10032;51.386;12.516;2023-03-16T09:14:23;100890.44;;;7.24;100.00
19748;BME280;10032;51.386;12.516;2023-03-16T09:16:49;100900.56;;;7.48;100.00
19748;BME280;10032;51.386;12.516;2023-03-16T09:19:15;100887.69;;;7.57;100.00
19748;BME280;10032;51.386;12.516;2023-03-16T09:21:41;100889.91;;;7.73;100.00
19748;BME280;10032;51.386;12.516;2023-03-16T09:24:06;100892.78;;;7.84;100.00
19748;BME280;10032;51.386;12.516;2023-03-16T09:26:34;100891.91;;;7.90;100.00
19748;BME280;10032;51.386;12.516;2023-03-16T09:28:59;100888.19;;;7.91;100.00
19748;BME280;10032;51.386;12.516;2023-03-16T09:31:24;100881.25;;;8.08;100.00
19748;BME280;10032;51.386;12.516;2023-03-16T09:33:50;100886.34;;;8.29;100.00
19748;BME280;10032;51.386;12.516;2023-03-16T09:36:16;100885.66;;;8.40;100.00
19748;BME280;10032;51.386;12.516;2023-03-16T09:38:43;100877.88;;;8.57;100.00
19748;BME280;10032;51.386;12.516;2023-03-16T09:44:09;100879.09;;;8.61;100.00
19748;BME280;10032;51.386;12.516;2023-03-16T09:46:43;100883.41;;;8.68;100.00
19748;BME280;10032;51.386;12.516;2023-03-16T09:49:12;100886.81;;;8.82;100.00
19748;BME280;10032;51.386;12.516;2023-03-16T09:54:31;100881.81;;;8.85;100.00
19748;BME280;10032;51.386;12.516;2023-03-16T09:56:59;100882.56;;;8.92;100.00
19748;BME280;10032;51.386;12.516;2023-03-16T09:59:25;100881.25;;;9.01;100.00
19748;BME280;10032;51.386;12.516;2023-03-16T10:02:29;100880.50;;;9.12;100.00
19748;BME280;10032;51.386;12.516;2023-03-16T10:05:11;100877.72;;;9.43;100.00
19748;BME280;10032;51.386;12.516;2023-03-16T10:12:42;100873.81;;;9.75;100.00
19748;BME280;10032;51.386;12.516;2023-03-16T10:17:50;100875.75;;;9.86;100.00
19748;BME280;10032;51.386;12.516;2023-03-16T10:20:20;100868.06;;;10.01;100.00
19748;BME280;10032;51.386;12.516;2023-03-16T10:22:48;100864.13;;;10.15;100.00
19748;BME280;10032;51.386;12.516;2023-03-16T10:25:34;100858.56;;;10.28;100.00
19748;BME280;10032;51.386;12.516;2023-03-16T10:28:03;100867.38;;;10.24;100.00
19748;BME280;10032;51.386;12.516;2023-03-16T10:30:32;100861.81;;;10.48;100.00
19748;BME280;10032;51.386;12.516;2023-03-16T10:33:03;100855.06;;;10.39;100.00
19748;BME280;10032;51.386;12.516;2023-03-16T10:35:41;100848.13;;;10.55;97.48
19748;BME280;10032;51.386;12.516;2023-03-16T10:40:55;100856.09;;;10.79;99.21
19748;BME280;10032;51.386;12.516;2023-03-16T10:43:22;100850.09;;;10.89;94.85
19748;BME280;10032;51.386;12.516;2023-03-16T10:45:48;100849.88;;;10.90;93.99
19748;BME280;10032;51.386;12.516;2023-03-16T10:48:16;100851.09;;;10.65;86.80
19748;BME280;10032;51.386;12.516;2023-03-16T10:50:49;100843.28;;;10.98;92.96
19748;BME280;10032;51.386;12.516;2023-03-16T10:53:18;100849.97;;;11.18;90.82
19748;BME280;10032;51.386;12.516;2023-03-16T10:55:46;100845.38;;;11.19;90.27
19748;BME280;10032;51.386;12.516;2023-03-16T10:58:22;100843.59;;;11.36;91.09
19748;BME280;10032;51.386;12.516;2023-03-16T11:00:49;100842.53;;;11.48;88.75
19748;BME280;10032;51.386;12.516;2023-03-16T11:03:24;100836.16;;;11.54;86.37
19748;BME280;10032;51.386;12.516;2023-03-16T11:06:20;100835.47;;;11.13;81.56
19748;BME280;10032;51.386;12.516;2023-03-16T11:08:47;100834.41;;;11.25;85.04
19748;BME280;10032;51.386;12.516;2023-03-16T11:11:20;100835.00;;;11.27;82.19
19748;BME280;10032;51.386;12.516;2023-03-16T11:13:48;100823.81;;;11.12;79.73
19748;BME280;10032;51.386;12.516;2023-03-16T11:19:02;100821.34;;;11.22;77.52
19748;BME280;10032;51.386;12.516;2023-03-16T11:22:02;100819.44;;;11.23;78.47
19748;BME280;10032;51.386;12.516;2023-03-16T11:27:23;100817.56;;;11.23;76.34
19748;BME280;10032;51.386;12.516;2023-03-16T11:30:14;100809.31;;;11.18;73.04
19748;BME280;10032;51.386;12.516;2023-03-16T11:32:47;100804.44;;;11.43;77.90
19748;BME280;10032;51.386;12.516;2023-03-16T11:35:17;100806.31;;;11.54;76.52
19748;BME280;10032;51.386;12.516;2023-03-16T11:38:15;100802.47;;;11.78;76.15
19748;BME280;10032;51.386;12.516;2023-03-16T11:41:02;100797.25;;;11.88;73.66
19748;BME280;10032;51.386;12.516;2023-03-16T11:43:48;100802.59;;;12.11;73.29
19748;BME280;10032;51.386;12.516;2023-03-16T11:46:31;100793.13;;;12.30;72.20
19748;BME280;10032;51.386;12.516;2023-03-16T12:03:34;100777.19;;;12.50;62.76
19748;BME280;10032;51.386;12.516;2023-03-16T12:17:58;100758.66;;;12.64;55.30
19748;BME280;10032;51.386;12.516;2023-03-16T12:20:28;100752.53;;;12.73;57.20
19748;BME280;10032;51.386;12.516;2023-03-16T12:23:02;100746.56;;;12.93;56.83
19748;BME280;10032;51.386;12.516;2023-03-16T12:25:36;100742.72;;;12.89;54.81
19748;BME280;10032;51.386;12.516;2023-03-16T12:28:10;100741.38;;;13.08;55.67
19748;BME280;10032;51.386;12.516;2023-03-16T12:41:22;100724.91;;;12.43;47.92
19748;BME280;10032;51.386;12.516;2023-03-16T12:49:21;100701.91;;;12.51;49.23
19748;BME280;10032;51.386;12.516;2023-03-16T12:52:02;100706.75;;;12.65;49.08
19748;BME280;10032;51.386;12.516;2023-03-16T12:54:27;100693.09;;;12.60;48.76
19748;BME280;10032;51.386;12.516;2023-03-16T12:57:14;100692.09;;;12.66;47.52
19748;BME280;10032;51.386;12.516;2023-03-16T12:59:42;100688.22;;;12.62;48.70
19748;BME280;10032;51.386;12.516;2023-03-16T13:02:25;100697.09;;;12.74;48.55
19748;BME280;10032;51.386;12.516;2023-03-16T13:05:01;100694.56;;;12.68;48.16
19748;BME280;10032;51.386;12.516;2023-03-16T13:07:31;100682.84;;;12.67;48.36
19748;BME280;10032;51.386;12.516;2023-03-16T13:10:08;100686.72;;;12.71;48.17
19748;BME280;10032;51.386;12.516;2023-03-16T13:12:36;100679.34;;;12.88;48.13
19748;BME280;10032;51.386;12.516;2023-03-16T13:17:44;100680.25;;;12.94;47.74
19748;BME280;10032;51.386;12.516;2023-03-16T13:22:46;100672.97;;;12.78;46.59
19748;BME280;10032;51.386;12.516;2023-03-16T13:25:23;100673.84;;;12.83;46.49
19748;BME280;10032;51.386;12.516;2023-03-16T13:28:00;100672.59;;;12.74;46.31
19748;BME280;10032;51.386;12.516;2023-03-16T13:30:31;100666.84;;;12.71;45.85
19748;BME280;10032;51.386;12.516;2023-03-16T13:33:26;100667.84;;;12.81;45.68
19748;BME280;10032;51.386;12.516;2023-03-16T13:35:54;100662.41;;;12.81;46.20
19748;BME280;10032;51.386;12.516;2023-03-16T13:38:23;100671.13;;;12.83;45.60
19748;BME280;10032;51.386;12.516;2023-03-16T13:40:54;100665.75;;;12.88;45.96
19748;BME280;10032;51.386;12.516;2023-03-16T13:43:25;100672.50;;;12.86;45.76
19748;BME280;10032;51.386;12.516;2023-03-16T13:45:56;100670.69;;;12.91;45.77
19748;BME280;10032;51.386;12.516;2023-03-16T13:48:21;100672.81;;;12.89;46.06
19748;BME280;10032;51.386;12.516;2023-03-16T13:50:54;100676.00;;;12.81;45.46
19748;BME280;10032;51.386;12.516;2023-03-16T13:53:28;100674.06;;;12.82;45.75
19748;BME280;10032;51.386;12.516;2023-03-16T13:55:57;100671.44;;;12.87;45.71
19748;BME280;10032;51.386;12.516;2023-03-16T14:00:57;100672.56;;;12.69;44.37
19748;BME280;10032;51.386;12.516;2023-03-16T14:03:31;100677.34;;;12.62;44.41